Time;durP1;ratioP1;P1;durP2;ratioP2;P2;SDS_P1;SDS_P2;PMS_P1;PMS_P2;Temp;Humidity;BMP_temperature;BMP_pressure;BME280_temperature;BME280_humidity;BME280_pressure;Samples;Min_cycle;Max_cycle;Signal;HPM_P1;HPM_P2
2023/01/01 00:01:53;;;;;;;296.73;166.20;;;;;;;7.10;67.67;96044.34;4160628;28;20076;-74
2023/01/01 00:03:57;;;;;;;296.45;166.57;;;;;;;7.10;67.36;96041.72;4143758;28;20096;-75
2023/01/01 00:05:58;;;;;;;298.80;174.32;;;;;;;7.11;67.61;96039.00;4171757;28;20137;-73
2023/01/01 00:08:00;;;;;;;300.33;170.15;;;;;;;7.11;67.95;96041.59;4173933;28;20110;-74
2023/01/01 00:12:26;;;;;;;311.13;171.95;;;;;;;7.14;67.64;96048.38;4174164;28;20061;-73
2023/01/01 00:14:27;;;;;;;322.10;172.25;;;;;;;7.10;67.50;96057.34;4160470;28;20064;-75
2023/01/01 00:16:29;;;;;;;307.48;168.27;;;;;;;7.07;67.83;96055.78;4177126;28;20115;-72
2023/01/01 00:18:31;;;;;;;309.45;173.23;;;;;;;7.06;67.58;96058.50;4176420;28;20080;-75
2023/01/01 00:20:33;;;;;;;323.02;178.88;;;;;;;6.68;68.41;96054.91;4178104;28;20480;-76
2023/01/01 00:22:36;;;;;;;320.20;176.43;;;;;;;6.61;68.86;96058.88;4176849;28;20048;-75
2023/01/01 00:24:56;;;;;;;313.17;173.40;;;;;;;6.58;69.68;96056.44;4177432;28;20093;-72
2023/01/01 00:26:57;;;;;;;321.98;174.23;;;;;;;6.67;69.37;96070.66;4177345;28;20192;-74
2023/01/01 00:29:00;;;;;;;326.88;179.48;;;;;;;6.72;69.25;96064.19;4176824;28;20129;-73
2023/01/01 00:31:16;;;;;;;325.20;174.35;;;;;;;6.73;68.73;96076.28;4177219;28;20158;-74
2023/01/01 00:33:18;;;;;;;312.80;173.40;;;;;;;6.81;68.56;96064.53;4159251;28;20075;-74
2023/01/01 00:35:20;;;;;;;313.55;173.43;;;;;;;6.89;68.75;96064.84;4165263;28;20061;-73
2023/01/01 00:37:21;;;;;;;325.77;173.02;;;;;;;6.94;68.58;96063.59;4160956;28;20049;-73
2023/01/01 00:39:23;;;;;;;316.33;172.05;;;;;;;6.99;68.07;96063.28;4161373;28;20062;-74
2023/01/01 00:41:25;;;;;;;318.30;173.52;;;;;;;7.00;68.01;96066.72;4163834;28;20053;-73
2023/01/01 00:43:27;;;;;;;313.13;167.65;;;;;;;6.98;67.95;96059.00;4177196;28;20056;-75
2023/01/01 00:45:28;;;;;;;305.15;168.80;;;;;;;7.03;67.98;96059.53;4155799;28;20045;-75
2023/01/01 00:47:30;;;;;;;323.85;178.70;;;;;;;7.03;67.77;96064.72;4167523;28;20471;-73
2023/01/01 00:49:32;;;;;;;317.08;176.38;;;;;;;6.90;67.66;96062.13;4177357;28;20546;-73
2023/01/01 00:51:34;;;;;;;316.55;176.75;;;;;;;6.81;67.88;96061.91;4176261;28;20057;-73
2023/01/01 00:53:38;;;;;;;329.00;176.55;;;;;;;6.79;68.59;96072.44;4164357;28;20053;-74
2023/01/01 00:55:40;;;;;;;303.27;172.35;;;;;;;6.80;68.17;96071.50;4169835;28;20160;-75
2023/01/01 00:57:42;;;;;;;302.55;162.63;;;;;;;6.87;67.96;96072.75;4172439;28;20089;-74
2023/01/01 00:59:43;;;;;;;306.52;165.13;;;;;;;6.91;68.21;96074.22;4164466;28;20130;-76
2023/01/01 01:01:45;;;;;;;317.77;167.52;;;;;;;6.93;68.29;96079.34;4172194;28;20045;-74
2023/01/01 01:03:47;;;;;;;311.23;169.27;;;;;;;6.91;67.57;96073.41;4162793;28;20092;-75
2023/01/01 01:05:49;;;;;;;340.45;182.98;;;;;;;6.93;67.49;96074.97;4164903;28;20073;-74
2023/01/01 01:07:51;;;;;;;328.48;181.27;;;;;;;6.92;67.50;96070.66;4173026;28;20091;-74
2023/01/01 01:09:52;;;;;;;344.80;189.50;;;;;;;6.86;67.21;96057.22;4173023;28;20132;-73
2023/01/01 01:11:54;;;;;;;324.48;178.63;;;;;;;6.80;67.71;96058.47;4164113;28;20427;-73
2023/01/01 01:14:16;;;;;;;312.33;177.57;;;;;;;6.77;67.57;96058.66;4167331;28;20076;-74
2023/01/01 01:16:26;;;;;;;325.05;178.23;;;;;;;6.67;67.75;96057.63;4166555;28;20407;-74
2023/01/01 01:18:28;;;;;;;338.23;185.20;;;;;;;6.65;68.14;96057.72;4158613;28;20500;-75
2023/01/01 01:20:30;;;;;;;320.48;187.00;;;;;;;6.58;67.64;96056.44;4176032;28;20507;-74
2023/01/01 01:22:33;;;;;;;319.52;175.60;;;;;;;6.37;67.84;96063.91;4167182;28;20048;-73
2023/01/01 01:24:35;;;;;;;321.30;176.43;;;;;;;6.27;68.30;96060.22;4173650;28;20197;-74
2023/01/01 01:26:37;;;;;;;301.75;168.95;;;;;;;6.19;69.06;96055.50;4168857;28;20118;-72
2023/01/01 01:28:39;;;;;;;302.67;167.80;;;;;;;6.20;69.12;96049.38;4165884;28;20065;-74
2023/01/01 01:30:49;;;;;;;311.42;174.32;;;;;;;6.26;68.96;96050.75;4164142;28;20056;-72
2023/01/01 01:32:51;;;;;;;286.75;163.05;;;;;;;6.25;68.92;96044.72;4169202;28;20060;-73
2023/01/01 01:34:53;;;;;;;294.92;160.38;;;;;;;6.22;69.28;96046.69;4167459;28;20195;-73
2023/01/01 01:36:55;;;;;;;303.90;166.90;;;;;;;6.24;69.11;96047.41;4164396;28;20053;-75
2023/01/01 01:38:57;;;;;;;314.58;174.15;;;;;;;6.29;69.18;96054.00;4160184;28;20160;-74
2023/01/01 01:40:59;;;;;;;305.17;176.10;;;;;;;6.34;68.89;96051.91;4160280;28;20064;-74
2023/01/01 01:43:00;;;;;;;307.95;171.45;;;;;;;6.40;68.70;96057.66;4175171;28;20067;-73
2023/01/01 01:45:05;;;;;;;308.98;172.10;;;;;;;6.45;68.65;96055.59;4177072;28;20075;-74
2023/01/01 01:47:13;;;;;;;289.98;157.55;;;;;;;6.39;68.32;96051.63;4175761;28;20480;-73
2023/01/01 01:49:20;;;;;;;297.73;167.88;;;;;;;6.42;68.60;96048.00;4158083;28;20105;-74
2023/01/01 01:51:27;;;;;;;289.58;159.38;;;;;;;6.40;68.29;96048.09;4158549;28;20076;-72
2023/01/01 01:53:30;;;;;;;315.25;172.32;;;;;;;6.29;68.49;96043.59;4158398;28;20127;-77
2023/01/01 01:55:34;;;;;;;303.20;164.23;;;;;;;6.11;68.76;96039.59;4157937;28;20133;-73
2023/01/01 01:57:37;;;;;;;286.30;162.32;;;;;;;5.79;69.52;96046.81;4158335;28;20283;-74
2023/01/01 01:59:43;;;;;;;291.05;163.50;;;;;;;5.44;70.94;96049.81;4176609;28;20057;-72
2023/01/01 02:01:44;;;;;;;295.75;164.23;;;;;;;5.16;72.40;96058.47;4175580;28;20085;-75
2023/01/01 02:03:58;;;;;;;261.58;143.45;;;;;;;4.90;73.35;96053.91;4174597;28;20052;-73
2023/01/01 02:06:00;;;;;;;263.02;146.00;;;;;;;4.93;73.32;96061.50;4158279;28;20060;-74
2023/01/01 02:08:03;;;;;;;265.50;146.32;;;;;;;4.86;73.69;96068.00;4158333;28;20493;-73
2023/01/01 02:10:05;;;;;;;258.92;141.32;;;;;;;4.96;74.00;96067.44;4173698;28;20064;-74
2023/01/01 02:12:07;;;;;;;241.68;135.18;;;;;;;5.15;74.31;96067.19;4156790;28;20061;-73
2023/01/01 02:14:09;;;;;;;247.02;142.38;;;;;;;5.33;73.77;96071.25;4161923;28;20064;-74
2023/01/01 02:16:13;;;;;;;275.23;151.07;;;;;;;5.56;73.02;96069.03;4169013;28;20103;-74
2023/01/01 02:18:19;;;;;;;264.85;151.23;;;;;;;5.68;71.79;96069.09;4169554;28;20080;-75
2023/01/01 02:20:34;;;;;;;217.02;126.82;;;;;;;5.82;71.38;96070.84;4165758;28;20054;-75
2023/01/01 02:22:35;;;;;;;207.00;121.00;;;;;;;5.96;70.89;96075.22;4176639;28;20080;-75
2023/01/01 02:25:04;;;;;;;232.43;132.50;;;;;;;6.02;70.00;96072.19;4179262;28;20334;-73
2023/01/01 02:27:47;;;;;;;231.00;126.45;;;;;;;5.99;69.12;96067.19;4161414;28;20054;-75
2023/01/01 02:29:55;;;;;;;226.32;125.30;;;;;;;5.97;69.23;96066.47;4159989;28;20065;-76
2023/01/01 02:32:03;;;;;;;217.68;123.20;;;;;;;6.01;69.85;96062.75;4156942;28;20810;-73
2023/01/01 02:34:07;;;;;;;199.30;112.65;;;;;;;6.06;69.25;96068.47;4161502;28;20049;-72
2023/01/01 02:36:11;;;;;;;197.70;113.07;;;;;;;6.09;69.33;96063.09;4150117;28;20061;-72
2023/01/01 02:38:15;;;;;;;205.85;114.55;;;;;;;6.14;69.27;96060.19;4156921;28;20054;-77
2023/01/01 02:40:18;;;;;;;209.75;117.50;;;;;;;6.20;69.19;96066.78;4175036;28;20045;-74
2023/01/01 02:42:23;;;;;;;211.82;122.55;;;;;;;6.26;69.37;96058.56;4171629;28;20067;-74
2023/01/01 02:44:26;;;;;;;215.05;122.93;;;;;;;6.28;68.47;96061.88;4158563;28;20050;-75
2023/01/01 02:46:32;;;;;;;226.45;126.32;;;;;;;6.27;68.81;96055.84;4158409;28;20444;-72
2023/01/01 02:48:42;;;;;;;207.65;118.03;;;;;;;6.24;68.34;96056.06;4169309;28;20060;-74
2023/01/01 02:50:45;;;;;;;213.32;122.15;;;;;;;6.18;68.31;96061.66;4173872;28;20112;-75
2023/01/01 02:53:35;;;;;;;213.93;120.20;;;;;;;6.22;68.90;96059.72;4168075;28;20057;-74
2023/01/01 02:55:45;;;;;;;186.10;108.43;;;;;;;6.22;68.85;96055.34;4169321;28;20558;-75
2023/01/01 03:00:17;;;;;;;190.80;109.03;;;;;;;6.22;68.41;96049.31;4162974;28;20053;-73
2023/01/01 03:00:26;;;;;;;189.95;107.70;;;;;;;6.20;68.40;96051.16;4167915;28;20060;-75
2023/01/01 03:02:39;;;;;;;189.13;107.55;;;;;;;6.23;68.21;96045.75;4169784;28;20061;-76
2023/01/01 03:05:15;;;;;;;187.43;105.78;;;;;;;6.19;68.31;96052.91;4181707;28;20470;-76
2023/01/01 03:07:35;;;;;;;200.27;109.63;;;;;;;6.18;68.02;96045.22;4180515;28;20080;-74
2023/01/01 03:09:52;;;;;;;187.00;107.47;;;;;;;6.17;68.02;96052.16;4163098;28;20091;-74
2023/01/01 03:12:03;;;;;;;171.13;96.85;;;;;;;6.12;67.85;96043.84;4173341;28;20053;-74
2023/01/01 03:14:37;;;;;;;167.27;94.35;;;;;;;6.11;68.10;96044.78;4177948;28;20056;-73
2023/01/01 03:16:44;;;;;;;159.50;89.35;;;;;;;6.09;68.24;96051.84;4128556;28;20084;-75
2023/01/01 03:19:17;;;;;;;172.93;99.93;;;;;;;6.06;67.97;96060.66;4178060;28;20068;-74
2023/01/01 03:21:21;;;;;;;165.85;92.15;;;;;;;6.01;68.55;96060.13;4149123;28;20057;-71
2023/01/01 03:23:26;;;;;;;144.50;82.70;;;;;;;6.00;67.89;96062.81;4172967;28;20145;-73
2023/01/01 03:25:31;;;;;;;160.88;91.35;;;;;;;5.99;68.11;96067.19;4160445;28;20053;-75
2023/01/01 03:27:38;;;;;;;165.07;90.90;;;;;;;5.96;67.95;96070.00;4159943;28;20061;-74
2023/01/01 03:29:42;;;;;;;152.15;88.32;;;;;;;5.94;68.33;96069.25;4145522;28;20122;-74
2023/01/01 03:31:45;;;;;;;184.65;101.38;;;;;;;5.86;68.28;96058.47;4153050;28;20049;-73
2023/01/01 03:33:56;;;;;;;233.23;129.98;;;;;;;5.75;68.98;96049.59;4176925;28;20057;-76
2023/01/01 03:36:08;;;;;;;223.52;121.53;;;;;;;5.66;69.70;96057.13;4166355;28;20052;-74
2023/01/01 03:38:41;;;;;;;201.82;114.05;;;;;;;5.69;69.71;96062.97;4160295;28;20107;-73
2023/01/01 03:40:44;;;;;;;205.77;116.90;;;;;;;5.77;69.89;96059.91;4150578;28;20516;-74
2023/01/01 03:42:50;;;;;;;207.63;117.68;;;;;;;5.83;69.63;96063.84;4177893;28;20049;-74
2023/01/01 03:45:00;;;;;;;214.23;121.82;;;;;;;5.84;69.45;96061.16;4159146;28;20119;-75
2023/01/01 03:47:04;;;;;;;208.50;120.15;;;;;;;5.91;69.33;96059.00;4158725;28;20068;-74
2023/01/01 03:49:07;;;;;;;219.38;125.10;;;;;;;5.97;68.48;96050.03;4173826;28;20063;-72
2023/01/01 03:51:39;;;;;;;217.43;125.60;;;;;;;5.91;69.10;96052.03;4173613;28;20065;-74
2023/01/01 03:53:42;;;;;;;203.93;115.55;;;;;;;5.95;68.90;96066.56;4165021;28;20312;-73
2023/01/01 03:55:59;;;;;;;196.77;110.00;;;;;;;6.01;68.96;96057.53;4177834;28;20443;-73
2023/01/01 03:58:25;;;;;;;219.13;125.40;;;;;;;5.99;68.72;96054.19;4175053;28;20546;-74
2023/01/01 04:00:32;;;;;;;210.02;117.90;;;;;;;5.98;68.43;96060.34;4143577;28;20054;-73
2023/01/01 04:02:40;;;;;;;203.75;116.13;;;;;;;6.02;68.27;96064.38;4143178;28;20065;-73
2023/01/01 04:04:42;;;;;;;197.15;112.93;;;;;;;6.00;68.83;96063.69;4155150;28;20496;-73
2023/01/01 04:06:44;;;;;;;182.10;106.55;;;;;;;5.85;68.37;96057.66;4167154;28;20115;-73
2023/01/01 04:08:48;;;;;;;177.95;106.13;;;;;;;5.91;68.82;96064.22;4155106;28;20061;-74
2023/01/01 04:10:56;;;;;;;188.23;104.85;;;;;;;5.85;68.74;96062.84;4155813;28;21099;-75
2023/01/01 04:12:57;;;;;;;171.05;97.40;;;;;;;5.85;68.76;96062.00;4168696;28;20055;-74
2023/01/01 04:14:59;;;;;;;173.52;97.80;;;;;;;5.84;68.87;96065.53;4155543;28;20382;-73
2023/01/01 04:17:03;;;;;;;154.52;91.65;;;;;;;5.71;68.92;96063.69;4174376;28;20107;-72
2023/01/01 04:19:08;;;;;;;167.50;94.03;;;;;;;5.74;69.37;96062.66;4171951;28;20049;-73
2023/01/01 04:21:11;;;;;;;134.15;78.93;;;;;;;5.62;68.58;96060.84;4157789;28;20468;-74
2023/01/01 04:23:12;;;;;;;146.07;87.03;;;;;;;5.58;69.20;96060.19;4156727;28;20088;-74
2023/01/01 04:25:16;;;;;;;139.88;81.55;;;;;;;5.61;68.98;96067.78;4176683;28;20063;-74
2023/01/01 04:27:17;;;;;;;136.05;81.75;;;;;;;5.60;68.98;96058.34;4176969;28;20140;-75
2023/01/01 04:29:20;;;;;;;132.68;78.75;;;;;;;5.54;69.33;96062.16;4177555;28;20142;-74
2023/01/01 04:31:22;;;;;;;129.63;73.30;;;;;;;5.47;69.76;96065.22;4174624;28;20048;-73
2023/01/01 04:33:23;;;;;;;119.47;72.43;;;;;;;5.49;69.24;96063.38;4183441;28;20049;-75
2023/01/01 04:35:25;;;;;;;126.03;72.78;;;;;;;5.51;69.85;96066.72;4186367;28;20179;-74
2023/01/01 04:37:27;;;;;;;139.85;79.50;;;;;;;5.57;69.66;96068.94;4176082;28;20063;-73
2023/01/01 04:39:29;;;;;;;145.07;84.07;;;;;;;5.57;69.88;96061.16;4177110;28;20136;-73
2023/01/01 04:41:31;;;;;;;149.00;86.85;;;;;;;5.63;69.16;96063.34;4176502;28;20060;-73
2023/01/01 04:43:32;;;;;;;156.45;91.97;;;;;;;5.71;68.71;96063.69;4164582;28;20540;-72
2023/01/01 04:45:34;;;;;;;171.68;97.57;;;;;;;5.69;68.68;96065.56;4176350;28;20064;-74
2023/01/01 04:47:36;;;;;;;162.75;95.45;;;;;;;5.74;68.29;96063.53;4176368;28;20139;-73
2023/01/01 04:49:38;;;;;;;172.13;100.43;;;;;;;5.70;68.18;96064.66;4176094;28;20088;-74
2023/01/01 04:51:39;;;;;;;167.43;96.18;;;;;;;5.68;68.31;96069.09;4173679;28;20559;-73
2023/01/01 04:53:41;;;;;;;167.23;95.22;;;;;;;5.66;68.70;96067.53;4167553;28;20230;-74
2023/01/01 04:55:43;;;;;;;173.05;97.38;;;;;;;5.67;68.84;96054.41;4170996;28;20119;-76
2023/01/01 04:57:44;;;;;;;174.88;99.65;;;;;;;5.69;68.50;96060.34;4176835;28;20049;-76
2023/01/01 04:59:46;;;;;;;173.82;102.40;;;;;;;5.66;68.34;96055.38;4159197;28;20091;-73
2023/01/01 05:01:48;;;;;;;176.95;97.90;;;;;;;5.64;68.72;96065.03;4160629;28;20105;-74
2023/01/01 05:03:50;;;;;;;173.32;97.18;;;;;;;5.68;68.83;96071.72;4165543;28;20532;-74
2023/01/01 05:06:03;;;;;;;158.32;93.68;;;;;;;5.66;67.98;96070.97;4176905;28;20083;-75
2023/01/01 05:08:04;;;;;;;159.20;92.32;;;;;;;5.61;68.50;96066.97;4144659;28;20054;-74
2023/01/01 05:10:06;;;;;;;155.07;88.35;;;;;;;5.59;68.76;96071.44;4164207;28;20057;-74
2023/01/01 05:12:08;;;;;;;151.45;84.82;;;;;;;5.59;68.61;96074.03;4163353;28;20077;-74
2023/01/01 05:14:10;;;;;;;135.93;76.82;;;;;;;5.55;68.36;96076.00;4176746;28;20053;-73
2023/01/01 05:16:17;;;;;;;151.55;85.18;;;;;;;5.50;69.00;96073.66;4176120;28;20068;-75
2023/01/01 05:18:19;;;;;;;151.10;88.90;;;;;;;5.52;68.57;96076.16;4176860;28;20517;-73
2023/01/01 05:20:21;;;;;;;154.73;89.72;;;;;;;5.51;68.78;96075.34;4176220;28;20053;-73
2023/01/01 05:22:23;;;;;;;148.52;86.97;;;;;;;5.53;68.59;96081.28;4176033;28;20433;-75
2023/01/01 05:24:24;;;;;;;147.13;85.88;;;;;;;5.56;69.23;96079.44;4176010;28;20080;-74
2023/01/01 05:26:29;;;;;;;149.73;88.70;;;;;;;5.60;68.11;96080.91;4176668;28;20053;-74
2023/01/01 05:28:31;;;;;;;187.57;103.97;;;;;;;5.55;68.59;96070.81;4157846;28;20541;-75
2023/01/01 05:30:32;;;;;;;185.75;102.18;;;;;;;5.49;69.29;96081.56;4170696;28;20455;-74
2023/01/01 05:32:36;;;;;;;172.90;101.20;;;;;;;5.51;69.23;96083.16;4142548;28;20141;-75
2023/01/01 05:34:37;;;;;;;177.25;99.75;;;;;;;5.50;68.92;96078.84;4160494;28;20080;-73
2023/01/01 05:36:38;;;;;;;170.65;100.53;;;;;;;5.40;69.07;96085.56;4160903;28;20060;-74
2023/01/01 05:38:40;;;;;;;175.20;98.25;;;;;;;5.30;69.59;96081.84;4159634;28;20203;-74
2023/01/01 05:40:41;;;;;;;201.65;117.80;;;;;;;5.21;70.26;96087.59;4170025;28;20049;-75
2023/01/01 05:42:46;;;;;;;204.07;119.05;;;;;;;5.18;70.13;96092.97;4166136;28;20111;-75
2023/01/01 05:44:47;;;;;;;195.00;110.28;;;;;;;5.14;70.42;96089.72;4173940;28;20081;-74
2023/01/01 05:46:49;;;;;;;186.90;109.32;;;;;;;5.16;70.25;96084.44;4175972;28;20170;-75
2023/01/01 05:48:52;;;;;;;175.07;102.80;;;;;;;5.19;70.51;96082.50;4177645;28;20471;-74
2023/01/01 05:51:00;;;;;;;185.80;105.63;;;;;;;5.24;70.22;96087.41;4175916;28;20493;-75
2023/01/01 05:53:02;;;;;;;191.60;105.88;;;;;;;5.29;69.81;96085.34;4175191;28;20344;-76
2023/01/01 05:55:04;;;;;;;180.50;103.93;;;;;;;5.36;69.64;96091.88;4175206;28;20046;-73
2023/01/01 05:57:06;;;;;;;177.13;104.30;;;;;;;5.37;68.78;96088.34;4176532;28;20049;-75
2023/01/01 05:59:09;;;;;;;182.68;106.00;;;;;;;5.27;69.14;96093.28;4179707;28;20110;-74
2023/01/01 06:01:17;;;;;;;172.52;100.65;;;;;;;5.18;69.57;96093.81;4179275;28;20169;-74
2023/01/01 06:03:19;;;;;;;158.55;92.15;;;;;;;5.19;69.35;96092.06;4178747;28;20092;-75
2023/01/01 06:05:20;;;;;;;157.90;92.45;;;;;;;5.08;69.35;96097.91;4161007;28;20115;-74
2023/01/01 06:07:22;;;;;;;153.63;87.60;;;;;;;5.09;69.88;96095.19;4179066;28;20182;-73
2023/01/01 06:09:24;;;;;;;153.88;87.80;;;;;;;5.17;69.85;96091.31;4179134;28;20106;-75
2023/01/01 06:11:26;;;;;;;154.57;87.95;;;;;;;5.21;69.13;96093.63;4177479;28;20059;-75
2023/01/01 06:13:28;;;;;;;149.35;86.75;;;;;;;5.35;69.46;96092.78;4151063;28;20057;-76
2023/01/01 06:15:30;;;;;;;150.85;82.50;;;;;;;5.32;68.52;96091.22;4177007;28;20061;-74
2023/01/01 06:17:33;;;;;;;140.15;80.88;;;;;;;5.34;68.61;96098.94;4178719;28;20148;-73
2023/01/01 06:19:34;;;;;;;128.43;73.57;;;;;;;5.37;68.72;96106.53;4177347;28;20053;-75
2023/01/01 06:21:36;;;;;;;117.13;68.05;;;;;;;5.27;68.48;96092.41;4179758;28;20068;-76
2023/01/01 06:23:38;;;;;;;98.65;59.45;;;;;;;5.27;68.58;96088.06;4178101;28;20484;-76
2023/01/01 06:25:40;;;;;;;113.85;61.72;;;;;;;4.79;69.59;96103.03;4179573;28;20506;-76
2023/01/01 06:27:42;;;;;;;115.82;67.47;;;;;;;4.47;71.16;96103.13;4179159;28;20558;-75
2023/01/01 06:29:44;;;;;;;99.20;60.58;;;;;;;4.42;71.55;96109.50;4179365;28;20511;-76
2023/01/01 06:31:46;;;;;;;102.50;60.15;;;;;;;4.24;72.66;96106.19;4177851;28;20072;-74
2023/01/01 06:33:49;;;;;;;126.00;71.43;;;;;;;3.71;74.13;96109.97;4178086;28;20483;-76
2023/01/01 06:35:51;;;;;;;125.55;73.75;;;;;;;3.45;75.79;96118.19;4178946;28;20063;-75
2023/01/01 06:37:53;;;;;;;116.95;67.45;;;;;;;3.62;76.23;96119.06;4178719;28;20437;-77
2023/01/01 06:39:55;;;;;;;130.60;72.65;;;;;;;3.88;75.56;96128.84;4165571;28;20053;-75
2023/01/01 06:41:56;;;;;;;160.70;91.38;;;;;;;4.06;75.02;96127.00;4179001;28;20491;-75
2023/01/01 06:44:00;;;;;;;127.10;75.47;;;;;;;4.28;74.04;96112.84;4171456;28;20049;-73
2023/01/01 06:46:03;;;;;;;136.98;78.88;;;;;;;4.39;73.50;96112.25;4173553;28;20491;-73
2023/01/01 06:48:05;;;;;;;138.80;79.27;;;;;;;4.60;73.20;96125.78;4178045;28;20061;-72
2023/01/01 06:50:07;;;;;;;138.95;81.10;;;;;;;4.77;72.49;96125.63;4178546;28;20278;-76
2023/01/01 06:52:09;;;;;;;146.27;83.18;;;;;;;4.92;71.96;96127.34;4178545;28;20060;-75
2023/01/01 06:54:11;;;;;;;163.25;97.35;;;;;;;5.11;70.82;96134.06;4178546;28;20533;-74
2023/01/01 06:56:13;;;;;;;165.38;95.05;;;;;;;5.25;70.23;96131.50;4177969;28;20426;-76
2023/01/01 06:58:14;;;;;;;160.40;96.03;;;;;;;5.42;69.88;96134.84;4154225;28;20090;-75
2023/01/01 07:00:16;;;;;;;182.77;104.25;;;;;;;5.48;69.48;96130.09;4177596;28;20084;-74
2023/01/01 07:02:18;;;;;;;156.57;93.15;;;;;;;5.48;69.10;96140.50;4177519;28;20057;-75
2023/01/01 07:04:20;;;;;;;167.65;92.97;;;;;;;5.45;69.79;96138.09;4171096;28;20049;-75
2023/01/01 07:06:22;;;;;;;155.55;90.95;;;;;;;5.66;71.38;96135.97;4174177;28;20055;-74
2023/01/01 07:08:24;;;;;;;159.60;88.05;;;;;;;5.92;72.55;96139.56;4165090;28;20425;-75
2023/01/01 07:10:26;;;;;;;166.65;94.25;;;;;;;6.06;69.85;96136.13;4178087;28;20084;-74
2023/01/01 07:12:27;;;;;;;166.50;92.63;;;;;;;6.17;68.69;96139.81;4148253;28;20156;-75
2023/01/01 07:14:29;;;;;;;172.68;95.82;;;;;;;6.22;67.92;96142.97;4178671;28;20152;-71
2023/01/01 07:16:31;;;;;;;168.10;95.03;;;;;;;6.31;67.23;96138.00;4178324;28;20514;-73
2023/01/01 07:18:33;;;;;;;167.23;93.50;;;;;;;6.34;67.35;96131.78;4177435;28;20056;-74
2023/01/01 07:20:35;;;;;;;161.75;91.28;;;;;;;6.34;66.87;96131.78;4165823;28;20067;-74
2023/01/01 07:22:37;;;;;;;165.23;89.35;;;;;;;6.40;67.34;96125.34;4178146;28;20052;-76
2023/01/01 07:24:39;;;;;;;152.95;85.93;;;;;;;6.49;67.08;96136.00;4176811;28;20057;-75
2023/01/01 07:26:41;;;;;;;153.27;84.45;;;;;;;6.59;66.79;96127.59;4148810;28;20066;-73
2023/01/01 07:28:43;;;;;;;144.25;85.90;;;;;;;6.68;66.44;96124.41;4163258;28;20396;-76
2023/01/01 07:30:45;;;;;;;160.52;84.88;;;;;;;6.70;66.02;96131.16;4168735;28;20118;-75
2023/01/01 07:32:53;;;;;;;153.52;84.93;;;;;;;6.79;65.88;96127.13;4177673;28;20472;-75
2023/01/01 07:34:55;;;;;;;142.05;79.35;;;;;;;6.78;65.48;96129.84;4178056;28;20052;-74
2023/01/01 07:36:57;;;;;;;142.43;77.88;;;;;;;6.77;65.62;96134.19;4177911;28;20060;-75
2023/01/01 07:38:59;;;;;;;137.48;79.53;;;;;;;6.80;65.81;96134.03;4178491;28;20053;-75
2023/01/01 07:41:18;;;;;;;130.35;76.15;;;;;;;6.88;65.71;96136.09;4176976;28;20047;-74
2023/01/01 07:43:20;;;;;;;145.77;80.43;;;;;;;6.91;64.99;96136.75;4180105;28;20492;-74
2023/01/01 07:45:21;;;;;;;141.32;82.10;;;;;;;6.91;65.57;96141.13;4182609;28;20492;-73
2023/01/01 07:47:24;;;;;;;142.77;82.45;;;;;;;6.92;65.09;96141.00;4159114;28;20578;-74
2023/01/01 07:49:26;;;;;;;130.73;78.50;;;;;;;7.03;65.03;96132.47;4177779;28;20053;-74
2023/01/01 07:51:28;;;;;;;143.85;83.00;;;;;;;6.99;65.04;96136.25;4177914;28;20107;-76
2023/01/01 07:53:30;;;;;;;149.38;86.30;;;;;;;6.98;65.09;96140.59;4170803;28;20401;-77
2023/01/01 07:55:33;;;;;;;153.82;84.78;;;;;;;7.07;64.71;96136.56;4165175;28;20118;-76
2023/01/01 07:57:34;;;;;;;153.85;85.22;;;;;;;7.25;64.67;96136.25;4170834;28;20140;-74
2023/01/01 07:59:36;;;;;;;150.65;86.90;;;;;;;7.33;64.13;96136.56;4161833;28;20117;-75
2023/01/01 08:01:38;;;;;;;156.60;89.03;;;;;;;7.22;63.89;96132.09;4161382;28;20057;-75
2023/01/01 08:03:40;;;;;;;163.68;93.07;;;;;;;7.16;63.95;96141.16;4161318;28;20061;-76
2023/01/01 08:05:42;;;;;;;161.02;93.25;;;;;;;7.13;64.76;96145.75;4168928;28;20061;-76
2023/01/01 08:07:48;;;;;;;169.23;94.20;;;;;;;7.07;65.70;96146.16;4177530;28;20094;-76
2023/01/01 08:09:49;;;;;;;166.52;94.93;;;;;;;7.15;65.18;96143.88;4164199;28;20347;-75
2023/01/01 08:11:52;;;;;;;159.63;92.85;;;;;;;7.44;67.34;96148.88;4173170;28;20049;-73
2023/01/01 08:13:54;;;;;;;180.20;98.60;;;;;;;7.66;66.21;96143.88;4175492;28;20219;-75
2023/01/01 08:15:57;;;;;;;167.38;94.90;;;;;;;7.73;64.26;96144.28;4176683;28;20049;-73
2023/01/01 08:18:01;;;;;;;168.30;95.50;;;;;;;7.81;64.02;96157.66;4176464;28;20049;-74
2023/01/01 08:20:03;;;;;;;167.55;93.13;;;;;;;7.84;64.04;96157.41;4176212;28;20445;-73
2023/01/01 08:22:05;;;;;;;166.02;94.25;;;;;;;7.98;63.21;96159.09;4161940;28;20481;-75
2023/01/01 08:24:07;;;;;;;159.93;92.40;;;;;;;7.97;63.12;96152.19;4161333;28;20049;-76
2023/01/01 08:26:17;;;;;;;163.25;91.88;;;;;;;8.05;62.54;96154.25;4162039;28;20084;-78
2023/01/01 08:28:19;;;;;;;160.63;89.28;;;;;;;7.87;63.58;96153.75;4166720;28;20057;-73
2023/01/01 08:30:21;;;;;;;157.95;90.80;;;;;;;7.93;63.90;96163.78;4164834;28;20089;-76
2023/01/01 08:32:22;;;;;;;165.45;94.05;;;;;;;8.01;64.00;96151.03;4170537;28;20099;-77
2023/01/01 08:34:24;;;;;;;165.63;97.18;;;;;;;8.12;63.55;96151.09;4161837;28;20096;-76
2023/01/01 08:36:26;;;;;;;164.55;92.28;;;;;;;8.14;63.01;96149.22;4162950;28;20061;-74
2023/01/01 08:38:28;;;;;;;166.45;94.63;;;;;;;8.18;62.63;96148.06;4161422;28;20049;-75
2023/01/01 08:40:29;;;;;;;163.73;93.50;;;;;;;8.20;62.91;96153.19;4169435;28;20102;-76
2023/01/01 08:42:31;;;;;;;162.82;94.93;;;;;;;8.19;62.65;96152.34;4177293;28;20053;-75
2023/01/01 08:44:33;;;;;;;158.55;90.80;;;;;;;8.17;63.25;96151.63;4177045;28;20443;-75
2023/01/01 08:46:35;;;;;;;142.05;82.35;;;;;;;8.17;63.26;96158.59;4176117;28;20388;-74
2023/01/01 08:48:37;;;;;;;144.88;80.22;;;;;;;8.20;63.09;96142.75;4176269;28;20079;-76
2023/01/01 08:50:39;;;;;;;138.50;79.70;;;;;;;8.34;63.42;96147.78;4176803;28;20123;-73
2023/01/01 08:52:40;;;;;;;147.90;85.85;;;;;;;8.46;62.59;96156.56;4176292;28;20141;-73
2023/01/01 08:54:42;;;;;;;137.55;83.70;;;;;;;8.54;62.61;96142.94;4175710;28;20389;-75
2023/01/01 08:56:44;;;;;;;136.30;81.45;;;;;;;8.67;61.95;96143.75;4176597;28;20108;-77
2023/01/01 08:58:46;;;;;;;143.52;81.93;;;;;;;8.81;62.18;96142.72;4176388;28;20094;-76
2023/01/01 09:00:48;;;;;;;149.90;84.88;;;;;;;8.70;61.53;96147.91;4175212;28;20060;-73
2023/01/01 09:02:50;;;;;;;140.25;83.97;;;;;;;8.58;61.65;96137.41;4146230;28;20077;-74
2023/01/01 09:04:52;;;;;;;143.32;85.07;;;;;;;8.65;61.81;96143.03;4175095;28;20126;-75
2023/01/01 09:06:54;;;;;;;145.35;81.53;;;;;;;8.57;62.21;96135.72;4153389;28;20424;-77
2023/01/01 09:08:56;;;;;;;148.90;81.45;;;;;;;8.60;62.14;96135.53;4176521;28;20421;-78
2023/01/01 09:11:00;;;;;;;141.55;82.07;;;;;;;8.74;62.32;96131.06;4172942;28;20477;-75
2023/01/01 09:13:01;;;;;;;143.95;81.45;;;;;;;8.80;61.17;96134.06;4168255;28;20077;-75
2023/01/01 09:15:04;;;;;;;132.07;79.85;;;;;;;8.73;60.77;96129.38;4176727;28;20413;-76
2023/01/01 09:17:05;;;;;;;140.65;80.03;;;;;;;8.73;61.28;96126.75;4176100;28;20126;-77
2023/01/01 09:19:07;;;;;;;135.05;80.38;;;;;;;8.96;60.81;96119.84;4176714;28;20048;-78
2023/01/01 09:21:09;;;;;;;135.40;80.03;;;;;;;8.79;59.79;96113.25;4176835;28;20052;-76
2023/01/01 09:23:11;;;;;;;139.32;81.47;;;;;;;8.93;60.56;96115.69;4175810;28;20053;-76
2023/01/01 09:25:13;;;;;;;131.55;80.80;;;;;;;9.00;59.61;96108.22;4175856;28;20455;-75
2023/01/01 09:27:15;;;;;;;139.63;80.70;;;;;;;8.81;60.33;96104.34;4176233;28;20484;-75
2023/01/01 09:29:19;;;;;;;130.88;78.78;;;;;;;8.85;60.72;96096.31;4177147;28;20057;-76
2023/01/01 09:31:21;;;;;;;130.68;75.55;;;;;;;9.08;59.93;96099.78;4175241;28;20492;-76
2023/01/01 09:33:23;;;;;;;133.45;76.93;;;;;;;9.28;59.16;96100.91;4175754;28;20049;-75